Time,TemperatureF,DewpointF,PressureIn,WindDirection,WindDirectionDegrees,WindSpeedMPH,WindSpeedGustMPH,Humidity,HourlyPrecipIn,Conditions,Clouds,dailyrainin,SoftwareType,DateUTC
2013-03-10 00:07:00,41.3,34.0,30.27,West,267,0.0,0.0,74,0.00,,,0.00,weatherlink.com 1.10,2013-03-10 05:07:00,
2013-03-10 00:22:00,41.1,34.0,30.27,West,267,0.0,0.0,75,0.00,,,0.00,weatherlink.com 1.10,2013-03-10 05:22:00,
2013-03-10 00:37:00,41.2,34.0,30.27,West,267,0.0,0.0,76,0.00,,,0.00,weatherlink.com 1.10,2013-03-10 05:37:00,
2013-03-10 00:52:00,41.3,34.0,30.27,West,267,0.0,0.0,76,0.00,,,0.00,weatherlink.com 1.10,2013-03-10 05:52:00,
2013-03-10 01:07:00,41.8,34.0,30.26,West,267,0.0,0.0,75,0.00,,,0.00,weatherlink.com 1.10,2013-03-10 06:07:00,
2013-03-10 01:22:00,41.6,34.0,30.26,West,267,0.0,0.0,74,0.00,,,0.00,weatherlink.com 1.10,2013-03-10 06:22:00,
2013-03-10 01:37:00,41.3,34.0,30.25,West,267,0.0,0.0,75,0.00,,,0.00,weatherlink.com 1.10,2013-03-10 06:37:00,
2013-03-10 01:52:00,40.9,34.0,30.25,West,267,0.0,0.0,77,0.00,,,0.00,weatherlink.com 1.10,2013-03-10 06:52:00,
2013-03-10 03:07:00,40.6,34.0,30.25,West,267,0.0,0.0,78,0.00,,,0.00,weatherlink.com 1.10,2013-03-10 07:07:00,
2013-03-10 03:22:00,40.3,34.0,30.24,West,267,0.0,0.0,79,0.00,,,0.00,weatherlink.com 1.10,2013-03-10 07:22:00,
2013-03-10 03:37:00,39.8,34.0,30.24,West,267,0.0,0.0,80,0.00,,,0.00,weatherlink.com 1.10,2013-03-10 07:37:00,
2013-03-10 03:52:00,39.3,34.0,30.24,West,267,0.0,0.0,80,0.00,,,0.00,weatherlink.com 1.10,2013-03-10 07:52:00,
2013-03-10 04:07:00,38.9,34.0,30.24,West,267,0.0,0.0,81,0.00,,,0.00,weatherlink.com 1.10,2013-03-10 08:07:00,
2013-03-10 04:22:00,38.5,33.0,30.23,West,267,0.0,0.0,82,0.00,,,0.00,weatherlink.com 1.10,2013-03-10 08:22:00,
2013-03-10 04:37:00,38.2,33.0,30.24,West,267,0.0,0.0,82,0.00,,,0.00,weatherlink.com 1.10,2013-03-10 08:37:00,
2013-03-10 04:52:00,37.9,33.0,30.24,West,267,0.0,0.0,83,0.00,,,0.00,weatherlink.com 1.10,2013-03-10 08:52:00,
2013-03-10 05:07:00,37.6,33.0,30.24,West,267,0.0,0.0,84,0.00,,,0.00,weatherlink.com 1.10,2013-03-10 09:07:00,
2013-03-10 05:22:00,37.3,33.0,30.24,West,267,0.0,0.0,84,0.00,,,0.00,weatherlink.com 1.10,2013-03-10 09:22:00,
2013-03-10 05:37:00,37.2,33.0,30.24,West,267,0.0,0.0,85,0.00,,,0.00,weatherlink.com 1.10,2013-03-10 09:37:00,
2013-03-10 05:52:00,37.2,33.0,30.24,West,267,0.0,0.0,85,0.00,,,0.00,weatherlink.com 1.10,2013-03-10 09:52:00,
2013-03-10 06:07:00,37.0,33.0,30.24,West,267,0.0,0.0,85,0.00,,,0.00,weatherlink.com 1.10,2013-03-10 10:07:00,
2013-03-10 06:22:00,36.6,33.0,30.24,West,267,0.0,0.0,85,0.00,,,0.00,weatherlink.com 1.10,2013-03-10 10:22:00,
2013-03-10 06:37:00,36.3,33.0,30.24,West,267,0.0,0.0,86,0.00,,,0.00,weatherlink.com 1.10,2013-03-10 10:37:00,
2013-03-10 06:52:00,36.2,32.0,30.24,West,267,0.0,0.0,86,0.00,,,0.00,weatherlink.com 1.10,2013-03-10 10:52:00,
2013-03-10 07:07:00,35.9,32.0,30.25,West,267,0.0,0.0,87,0.00,,,0.00,weatherlink.com 1.10,2013-03-10 11:07:00,
2013-03-10 07:22:00,35.8,32.0,30.25,West,267,0.0,0.0,87,0.00,,,0.00,weatherlink.com 1.10,2013-03-10 11:22:00,
2013-03-10 07:37:00,35.6,32.0,30.25,West,267,0.0,0.0,88,0.00,,,0.00,weatherlink.com 1.10,2013-03-10 11:37:00,
2013-03-10 07:52:00,35.8,33.0,30.25,West,267,0.0,0.0,88,0.00,,,0.00,weatherlink.com 1.10,2013-03-10 11:52:00,
2013-03-10 08:07:00,35.9,33.0,30.25,West,267,0.0,0.0,88,0.00,,,0.00,weatherlink.com 1.10,2013-03-10 12:07:00,
2013-03-10 08:22:00,36.6,33.0,30.26,West,267,0.0,0.0,88,0.00,,,0.00,weatherlink.com 1.10,2013-03-10 12:22:00,
2013-03-10 08:37:00,39.1,36.0,30.27,West,267,0.0,0.0,87,0.00,,,0.00,weatherlink.com 1.10,2013-03-10 12:37:00,
2013-03-10 08:52:00,41.2,36.0,30.26,West,267,0.0,0.0,83,0.00,,,0.00,weatherlink.com 1.10,2013-03-10 12:52:00,
2013-03-10 09:07:00,42.5,37.0,30.26,West,267,0.0,0.0,81,0.00,,,0.00,weatherlink.com 1.10,2013-03-10 13:07:00,
2013-03-10 09:22:00,43.9,38.0,30.27,West,267,0.0,0.0,81,0.00,,,0.00,weatherlink.com 1.10,2013-03-10 13:22:00,
2013-03-10 09:37:00,45.8,39.0,30.28,West,267,0.0,0.0,76,0.00,,,0.00,weatherlink.com 1.10,2013-03-10 13:37:00,
2013-03-10 09:52:00,47.9,36.0,30.29,West,267,0.0,0.0,63,0.00,,,0.00,weatherlink.com 1.10,2013-03-10 13:52:00,
2013-03-10 10:07:00,49.5,36.0,30.29,West,267,0.0,0.0,60,0.00,,,0.00,weatherlink.com 1.10,2013-03-10 14:07:00,
2013-03-10 10:38:00,52.9,34.0,30.28,SW,221,1.0,2.0,49,0.00,,,0.00,weatherlink.com 1.10,2013-03-10 14:38:00,
2013-03-10 10:53:00,54.7,35.0,30.28,SW,226,1.0,2.0,47,0.00,,,0.00,weatherlink.com 1.10,2013-03-10 14:53:00,
2013-03-10 11:08:00,57.0,34.0,30.28,SSE,165,0.0,3.0,43,0.00,,,0.00,weatherlink.com 1.10,2013-03-10 15:08:00,
2013-03-10 11:23:00,58.6,34.0,30.29,ESE,114,1.0,5.0,39,0.00,,,0.00,weatherlink.com 1.10,2013-03-10 15:23:00,
2013-03-10 11:39:00,60.1,34.0,30.28,East,94,1.0,6.0,37,0.00,,,0.00,weatherlink.com 1.10,2013-03-10 15:39:00,
2013-03-10 11:53:00,62.1,34.0,30.28,South,183,2.0,3.0,35,0.00,,,0.00,weatherlink.com 1.10,2013-03-10 15:53:00,
2013-03-10 12:08:00,62.6,34.0,30.28,ESE,116,3.0,3.0,34,0.00,,,0.00,weatherlink.com 1.10,2013-03-10 16:08:00,
2013-03-10 12:23:00,62.3,33.0,30.27,SSW,200,2.0,5.0,34,0.00,,,0.00,weatherlink.com 1.10,2013-03-10 16:23:00,
2013-03-10 12:38:00,62.3,32.0,30.26,ESE,103,0.0,5.0,32,0.00,,,0.00,weatherlink.com 1.10,2013-03-10 16:38:00,
2013-03-10 12:53:00,62.4,31.0,30.26,ESE,115,0.0,2.0,31,0.00,,,0.00,weatherlink.com 1.10,2013-03-10 16:53:00,
2013-03-10 13:08:00,64.0,33.0,30.25,ESE,106,1.0,4.0,31,0.00,,,0.00,weatherlink.com 1.10,2013-03-10 17:08:00,
2013-03-10 13:24:00,62.7,32.0,30.24,ESE,105,0.0,6.0,32,0.00,,,0.00,weatherlink.com 1.10,2013-03-10 17:24:00,
2013-03-10 13:38:00,63.2,33.0,30.23,South,189,2.0,8.0,32,0.00,,,0.00,weatherlink.com 1.10,2013-03-10 17:38:00,
2013-03-10 13:53:00,64.8,33.0,30.22,ESE,104,0.0,4.0,31,0.00,,,0.00,weatherlink.com 1.10,2013-03-10 17:53:00,
2013-03-10 14:08:00,64.2,32.0,30.22,ESE,115,0.0,2.0,30,0.00,,,0.00,weatherlink.com 1.10,2013-03-10 18:08:00,
2013-03-10 14:23:00,64.2,32.0,30.21,SSE,150,1.0,5.0,30,0.00,,,0.00,weatherlink.com 1.10,2013-03-10 18:23:00,
2013-03-10 14:38:00,65.0,31.0,30.20,ESE,113,0.0,7.0,28,0.00,,,0.00,weatherlink.com 1.10,2013-03-10 18:38:00,
2013-03-10 14:53:00,65.6,31.0,30.20,SE,128,0.0,3.0,28,0.00,,,0.00,weatherlink.com 1.10,2013-03-10 18:53:00,
2013-03-10 15:08:00,65.6,31.0,30.20,SE,124,0.0,8.0,27,0.00,,,0.00,weatherlink.com 1.10,2013-03-10 19:08:00,
2013-03-10 15:23:00,66.6,32.0,30.18,SE,130,1.0,4.0,28,0.00,,,0.00,weatherlink.com 1.10,2013-03-10 19:23:00,
2013-03-10 15:38:00,66.4,31.0,30.18,West,264,0.0,5.0,27,0.00,,,0.00,weatherlink.com 1.10,2013-03-10 19:38:00,
2013-03-10 15:53:00,66.8,32.0,30.18,West,269,2.0,7.0,27,0.00,,,0.00,weatherlink.com 1.10,2013-03-10 19:53:00,
2013-03-10 16:08:00,66.8,33.0,30.18,South,186,2.0,6.0,28,0.00,,,0.00,weatherlink.com 1.10,2013-03-10 20:08:00,
2013-03-10 16:23:00,66.8,33.0,30.18,SW,225,0.0,4.0,28,0.00,,,0.00,weatherlink.com 1.10,2013-03-10 20:23:00,
2013-03-10 16:38:00,67.3,33.0,30.17,SW,219,0.0,3.0,28,0.00,,,0.00,weatherlink.com 1.10,2013-03-10 20:38:00,
2013-03-10 16:53:00,67.1,32.0,30.17,ESE,114,1.0,5.0,27,0.00,,,0.00,weatherlink.com 1.10,2013-03-10 20:53:00,
2013-03-10 17:09:00,67.6,33.0,30.17,South,188,1.0,4.0,28,0.00,,,0.00,weatherlink.com 1.10,2013-03-10 21:09:00,
2013-03-10 17:23:00,67.1,33.0,30.16,SE,125,3.0,5.0,28,0.00,,,0.00,weatherlink.com 1.10,2013-03-10 21:23:00,
2013-03-10 17:38:00,67.3,33.0,30.16,SSW,211,2.0,8.0,28,0.00,,,0.00,weatherlink.com 1.10,2013-03-10 21:38:00,
2013-03-10 17:53:00,66.8,33.0,30.16,WSW,240,0.0,3.0,28,0.00,,,0.00,weatherlink.com 1.10,2013-03-10 21:53:00,
2013-03-10 18:08:00,66.0,31.0,30.16,SE,140,0.0,4.0,27,0.00,,,0.00,weatherlink.com 1.10,2013-03-10 22:08:00,
2013-03-10 18:23:00,65.6,31.0,30.16,ESE,107,0.0,5.0,28,0.00,,,0.00,weatherlink.com 1.10,2013-03-10 22:23:00,
2013-03-10 18:38:00,64.8,32.0,30.16,ESE,111,0.0,2.0,29,0.00,,,0.00,weatherlink.com 1.10,2013-03-10 22:38:00,
2013-03-10 18:53:00,64.5,31.0,30.15,East,84,0.0,3.0,29,0.00,,,0.00,weatherlink.com 1.10,2013-03-10 22:53:00,
2013-03-10 19:08:00,64.0,31.0,30.16,East,85,0.0,1.0,29,0.00,,,0.00,weatherlink.com 1.10,2013-03-10 23:08:00,
2013-03-10 19:23:00,63.2,32.0,30.16,SW,223,0.0,0.0,31,0.00,,,0.00,weatherlink.com 1.10,2013-03-10 23:23:00,
2013-03-10 19:38:00,61.8,32.0,30.17,SW,223,0.0,0.0,33,0.00,,,0.00,weatherlink.com 1.10,2013-03-10 23:38:00,
2013-03-10 19:54:00,60.5,33.0,30.18,SW,223,0.0,0.0,35,0.00,,,0.00,weatherlink.com 1.10,2013-03-10 23:54:00,
2013-03-10 20:09:00,58.4,34.0,30.18,SW,223,0.0,0.0,40,0.00,,,0.00,weatherlink.com 1.10,2013-03-11 00:09:00,
2013-03-10 20:24:00,56.7,34.0,30.18,SW,223,0.0,0.0,43,0.00,,,0.00,weatherlink.com 1.10,2013-03-11 00:24:00,
2013-03-10 20:39:00,55.6,35.0,30.18,SW,223,0.0,0.0,47,0.00,,,0.00,weatherlink.com 1.10,2013-03-11 00:39:00,
2013-03-10 20:54:00,54.4,35.0,30.18,SW,223,0.0,0.0,48,0.00,,,0.00,weatherlink.com 1.10,2013-03-11 00:54:00,
2013-03-10 21:09:00,53.3,36.0,30.18,SW,223,0.0,0.0,52,0.00,,,0.00,weatherlink.com 1.10,2013-03-11 01:09:00,
2013-03-10 21:24:00,52.6,36.0,30.18,SW,223,0.0,0.0,54,0.00,,,0.00,weatherlink.com 1.10,2013-03-11 01:24:00,
2013-03-10 21:39:00,52.0,37.0,30.19,SW,223,0.0,0.0,56,0.00,,,0.00,weatherlink.com 1.10,2013-03-11 01:39:00,
2013-03-10 21:54:00,51.3,37.0,30.20,SW,222,0.0,0.0,59,0.00,,,0.00,weatherlink.com 1.10,2013-03-11 01:54:00,
2013-03-10 22:09:00,50.4,37.0,30.20,SW,222,0.0,0.0,60,0.00,,,0.00,weatherlink.com 1.10,2013-03-11 02:09:00,
2013-03-10 22:24:00,49.9,36.0,30.19,SW,222,0.0,0.0,60,0.00,,,0.00,weatherlink.com 1.10,2013-03-11 02:24:00,
2013-03-10 22:39:00,49.6,37.0,30.19,SW,222,0.0,0.0,62,0.00,,,0.00,weatherlink.com 1.10,2013-03-11 02:39:00,
2013-03-10 22:54:00,49.8,36.0,30.19,SW,222,0.0,0.0,60,0.00,,,0.00,weatherlink.com 1.10,2013-03-11 02:54:00,
2013-03-10 23:09:00,51.0,36.0,30.20,SW,222,0.0,0.0,57,0.00,,,0.00,weatherlink.com 1.10,2013-03-11 03:09:00,
2013-03-10 23:24:00,51.6,36.0,30.20,SW,222,0.0,1.0,56,0.00,,,0.00,weatherlink.com 1.10,2013-03-11 03:24:00,
2013-03-10 23:39:00,52.2,35.0,30.20,SSW,208,0.0,1.0,53,0.00,,,0.00,weatherlink.com 1.10,2013-03-11 03:39:00,
2013-03-10 23:54:00,51.7,34.0,30.20,SSW,208,0.0,0.0,52,0.00,,,0.00,weatherlink.com 1.10,2013-03-11 03:54:00,